Terminal Aerodrome Forecast
Issued by NWS Columbia, SC

Home | Current Version | Previous Version | Text Only | Print | Product List | Glossary On
Versions: 1 2 3 4 5 6 7 8 9 10 11 12 13 14 15 16 17 18 19 20 21 22 23 24 25 26 27 28 29 30 31 32 33 34 35 36 37
000
FTAK31 PAJN 291100 RRA
TAFAGS
TAF
PAGS 291142Z 2912/3012 30006KT P6SM -SHRA SCT025 OVC050
     FM291800 12006KT P6SM -SHRA SCT020 OVC040
     FM292100 VRB04KT P6SM VCSH SCT025 OVC050
     FM300300 VRB03KT P6SM VCSH SCT020 BKN040 OVC060
     FM300900 00000KT P6SM VCSH SCT025 OVC050
      AMD NOT SKED=

USA.gov is the U.S. government's official web portal to all federal, state and local government web resources and services.